West Homestead, Pennsylvania
Current Conditions -  °F | °C
As of 11:53 AM on Thursday 23 Oct 2014 (Local Time) from KAGC Reporting Station
Clear Clear  
Wind Chill: 55°   Ceiling: Unl
Heat Index: 55°   Visibility: 10mi
Dew Point: 39°   Wind: 15mph
Humidity: 55%   Direction: 340°NNW
Pressure: 30.11"   Gusts: 22mph
Location:  40.3948°N, 79.9074°W
Report Text: KAGC 231553Z 34013G19KT 10SM CLR 13/04 A3011 RMK AO2 SLP202 T01280039
Loading
Personal Weather Stations






























Interactive Weather Map New forecast layout! Learn more

10-Day Weather Forecast

Advertisements
Track Severe Weather on mobile